createdAt,value
2019-04-23T00:03:06.936Z,47.70
2019-04-23T00:05:48.660Z,47.70
2019-04-23T00:08:19.285Z,47.70
2019-04-23T00:10:51.707Z,47.60
2019-04-23T00:13:24.580Z,47.90
2019-04-23T00:16:21.497Z,47.90
2019-04-23T00:21:34.566Z,47.90
2019-04-23T00:24:17.586Z,47.80
2019-04-23T00:27:01.944Z,47.90
2019-04-23T00:29:23.620Z,47.90
2019-04-23T00:31:46.491Z,48.00
2019-04-23T00:34:15.990Z,48.20
2019-04-23T00:36:53.482Z,48.30
2019-04-23T00:39:29.450Z,48.30
2019-04-23T00:41:58.729Z,48.20
2019-04-23T00:44:32.241Z,48.10
2019-04-23T00:47:02.506Z,48.20
2019-04-23T00:49:31.772Z,48.20
2019-04-23T00:52:14.593Z,48.20
2019-04-23T00:54:39.356Z,48.30
2019-04-23T00:57:15.003Z,48.30
2019-04-23T00:59:55.879Z,48.20
2019-04-23T01:02:18.341Z,48.30
2019-04-23T01:05:01.269Z,48.20
2019-04-23T01:07:24.267Z,48.10
2019-04-23T01:10:10.631Z,48.20
2019-04-23T01:12:42.670Z,48.40
2019-04-23T01:15:11.723Z,48.30
2019-04-23T01:20:14.254Z,49.00
2019-04-23T01:22:33.443Z,49.20
2019-04-23T01:25:24.727Z,49.20
2019-04-23T01:28:36.806Z,49.30
2019-04-23T01:31:02.495Z,49.20
2019-04-23T01:33:38.009Z,49.20
2019-04-23T01:36:16.192Z,49.30
2019-04-23T01:38:40.540Z,49.30
2019-04-23T01:41:13.305Z,49.10
2019-04-23T01:43:41.071Z,49.20
2019-04-23T01:46:12.833Z,49.30
2019-04-23T01:48:52.267Z,49.30
2019-04-23T01:51:25.923Z,49.30
2019-04-23T01:53:49.688Z,49.30
2019-04-23T01:56:25.915Z,49.20
2019-04-23T02:01:31.718Z,49.70
2019-04-23T02:04:12.187Z,49.10
2019-04-23T02:06:38.903Z,49.20
2019-04-23T02:09:13.809Z,49.10
2019-04-23T02:11:45.583Z,49.00
2019-04-23T02:14:14.770Z,49.00
2019-04-23T02:16:50.351Z,49.10
2019-04-23T02:19:23.313Z,49.10
2019-04-23T02:22:28.569Z,49.10
2019-04-23T02:25:02.437Z,48.90
2019-04-23T02:27:36.669Z,48.90
2019-04-23T02:30:20.701Z,49.00
2019-04-23T02:32:52.614Z,49.40
2019-04-23T02:35:46.852Z,49.40
2019-04-23T02:38:00.255Z,49.30
2019-04-23T02:40:26.722Z,49.60
2019-04-23T02:43:06.858Z,49.90
2019-04-23T02:45:35.924Z,50.20
2019-04-23T02:48:19.869Z,50.20
2019-04-23T02:53:31.717Z,50.70
2019-04-23T02:55:43.153Z,50.60
2019-04-23T02:58:23.791Z,50.70
2019-04-23T03:00:55.711Z,50.70
2019-04-23T03:03:27.962Z,50.50
2019-04-23T03:05:51.056Z,50.80
2019-04-23T03:08:29.911Z,50.90
2019-04-23T03:11:13.187Z,51.50
2019-04-23T03:13:44.237Z,51.60
2019-04-23T03:16:45.920Z,51.60
2019-04-23T03:19:02.961Z,51.50
2019-04-23T03:29:49.262Z,51.00
2019-04-23T03:37:33.870Z,51.00
2019-04-23T03:40:04.409Z,50.80
2019-04-23T03:42:23.326Z,50.60
2019-04-23T03:52:39.192Z,50.30
2019-04-23T03:55:10.309Z,50.70
2019-04-23T03:57:41.142Z,49.70
2019-04-23T04:03:10.354Z,49.10
2019-04-23T04:05:33.812Z,48.70
2019-04-23T04:08:07.240Z,48.30
2019-04-23T04:10:25.448Z,47.90
2019-04-23T04:13:04.106Z,47.70
2019-04-23T04:18:25.988Z,46.90
2019-04-23T04:23:22.733Z,46.10
2019-04-23T04:25:48.705Z,45.80
2019-04-23T04:28:38.896Z,45.70
2019-04-23T04:31:03.599Z,45.40
2019-04-23T04:43:45.313Z,44.00
2019-04-23T04:51:19.452Z,43.10
2019-04-23T04:54:02.664Z,42.60
2019-04-23T04:56:29.070Z,41.80
2019-04-23T04:58:53.050Z,41.40
2019-04-23T05:01:22.426Z,40.60
2019-04-23T05:03:58.458Z,39.80
2019-04-23T05:06:37.503Z,39.70
2019-04-23T05:14:06.486Z,37.80
2019-04-23T05:16:46.809Z,37.70
2019-04-23T05:19:29.574Z,37.30
2019-04-23T05:21:55.686Z,36.50
2019-04-23T05:26:50.823Z,35.80
2019-04-23T05:29:19.990Z,35.50
2019-04-23T05:31:53.369Z,35.50
2019-04-23T05:34:27.327Z,34.70
2019-04-23T05:39:38.103Z,34.00
2019-04-23T05:44:44.806Z,32.90
2019-04-23T05:49:47.558Z,33.00
2019-04-23T05:52:24.092Z,32.60
2019-04-23T05:54:56.252Z,32.10
2019-04-23T05:57:20.035Z,32.00
2019-04-23T05:59:57.494Z,32.00
2019-04-23T06:02:35.362Z,31.30
2019-04-23T06:05:03.836Z,31.30
2019-04-23T06:10:16.523Z,30.90
2019-04-23T06:12:45.441Z,29.90
2019-04-23T06:15:23.800Z,30.40
2019-04-23T06:17:56.165Z,30.10
2019-04-23T06:20:29.991Z,29.70
2019-04-23T06:23:01.985Z,29.00
2019-04-23T06:28:08.187Z,28.90
2019-04-23T06:33:16.056Z,28.70
2019-04-23T06:35:47.018Z,28.60
2019-04-23T06:38:37.293Z,28.40
2019-04-23T06:40:46.946Z,27.50
2019-04-23T06:43:32.044Z,27.50
2019-04-23T06:45:58.174Z,27.10
2019-04-23T06:48:35.493Z,27.50
2019-04-23T06:51:15.999Z,27.10
2019-04-23T06:53:35.889Z,27.00
2019-04-23T06:58:44.046Z,26.40
2019-04-23T07:01:36.556Z,26.90
2019-04-23T07:03:51.784Z,26.10
2019-04-23T07:06:38.382Z,26.50
2019-04-23T07:13:58.353Z,25.10
2019-04-23T07:16:32.484Z,24.90
2019-04-23T07:19:19.898Z,23.50
2019-04-23T07:21:42.074Z,23.50
2019-04-23T07:29:18.959Z,22.60
2019-04-23T07:31:53.808Z,22.90
2019-04-23T07:34:25.811Z,23.00
2019-04-23T07:36:59.055Z,22.50
2019-04-23T07:39:58.340Z,22.20
2019-04-23T07:42:39.521Z,21.90
2019-04-23T07:50:49.457Z,21.50
2019-04-23T07:53:23.116Z,20.60
2019-04-23T07:56:02.302Z,20.60
2019-04-23T08:00:58.204Z,21.30
2019-04-23T08:03:48.281Z,20.40
2019-04-23T08:06:02.670Z,20.00
2019-04-23T08:08:36.411Z,20.20
2019-04-23T08:11:30.606Z,20.10
2019-04-23T08:16:27.799Z,19.90
2019-04-23T08:21:27.593Z,19.00
2019-04-23T08:24:06.559Z,20.00
2019-04-23T08:26:59.780Z,20.20
2019-04-23T08:29:48.938Z,19.90
2019-04-23T08:32:12.353Z,20.10
2019-04-23T08:34:49.476Z,19.20
2019-04-23T08:37:15.393Z,19.80
2019-04-23T08:39:46.487Z,19.50
2019-04-23T08:45:24.230Z,17.30
2019-04-23T08:48:00.722Z,17.60
2019-04-23T08:50:32.285Z,17.10
2019-04-23T08:53:18.314Z,17.00
2019-04-23T08:55:38.809Z,17.10
2019-04-23T08:58:14.379Z,16.90
2019-04-23T09:03:25.129Z,17.30
2019-04-23T09:05:57.705Z,16.10
2019-04-23T09:11:16.646Z,16.30
2019-04-23T09:16:16.298Z,16.60
2019-04-23T09:18:45.970Z,15.50
2019-04-23T09:21:21.435Z,16.10
2019-04-23T09:23:53.716Z,15.70
2019-04-23T09:26:25.933Z,15.00
2019-04-23T09:28:56.512Z,14.50
2019-04-23T09:34:52.744Z,15.30
2019-04-23T09:37:52.664Z,15.40
2019-04-23T09:41:03.089Z,14.60
2019-04-23T09:43:27.814Z,13.90
2019-04-23T09:46:17.590Z,13.80
2019-04-23T09:48:51.170Z,13.90
2019-04-23T09:51:22.325Z,13.20
2019-04-23T09:53:56.831Z,13.80
2019-04-23T09:56:22.417Z,13.90
2019-04-23T09:59:02.976Z,14.30
2019-04-23T10:01:29.027Z,13.70
2019-04-23T10:03:50.827Z,13.80
2019-04-23T10:06:20.295Z,13.90
2019-04-23T10:08:52.227Z,14.30
2019-04-23T10:11:19.922Z,14.30
2019-04-23T10:13:52.595Z,14.20
2019-04-23T10:16:26.324Z,13.80
2019-04-23T10:18:57.260Z,13.70
2019-04-23T10:21:29.268Z,14.40
2019-04-23T10:24:01.397Z,13.60
2019-04-23T10:26:32.585Z,13.60
2019-04-23T10:29:07.772Z,13.40
2019-04-23T10:31:40.030Z,13.80
2019-04-23T10:34:12.299Z,13.60
2019-04-23T10:36:44.189Z,12.90
2019-04-23T10:39:21.606Z,13.30
2019-04-23T10:41:48.796Z,13.20
2019-04-23T10:44:25.583Z,13.10
2019-04-23T10:47:40.423Z,12.40
2019-04-23T10:53:26.616Z,13.50
2019-04-23T10:55:55.922Z,12.70
2019-04-23T10:58:22.871Z,12.50
2019-04-23T11:01:01.715Z,12.90
2019-04-23T11:09:29.341Z,12.90
2019-04-23T11:11:53.678Z,13.00
2019-04-23T11:14:25.457Z,12.60
2019-04-23T11:19:52.144Z,12.80
2019-04-23T11:22:21.800Z,12.80
2019-04-23T11:25:20.411Z,13.00
2019-04-23T11:27:14.700Z,12.80
2019-04-23T11:29:38.782Z,12.50
2019-04-23T11:32:40.906Z,12.50
2019-04-23T11:35:04.839Z,12.70
2019-04-23T11:37:36.345Z,12.40
2019-04-23T11:40:01.187Z,12.10
2019-04-23T11:42:30.994Z,11.80
2019-04-23T11:45:30.603Z,12.00
2019-04-23T11:48:07.530Z,11.30
2019-04-23T11:52:41.575Z,11.60
2019-04-23T11:55:29.341Z,11.80
2019-04-23T11:57:52.567Z,11.70
2019-04-23T12:02:58.058Z,11.20
2019-04-23T12:06:07.872Z,11.70
2019-04-23T12:08:50.976Z,11.50
2019-04-23T12:17:03.918Z,12.20
2019-04-23T12:22:03.525Z,11.50
2019-04-23T12:24:58.212Z,11.70
2019-04-23T12:27:06.287Z,11.60
2019-04-23T12:35:04.139Z,11.40
2019-04-23T12:40:19.892Z,11.20
2019-04-23T12:50:45.412Z,11.70
2019-04-23T12:53:00.673Z,12.00
2019-04-23T12:58:09.934Z,11.40
2019-04-23T13:03:16.961Z,11.20
2019-04-23T13:05:37.488Z,11.60
2019-04-23T13:08:27.207Z,11.40
2019-04-23T13:15:53.276Z,11.90
2019-04-23T13:18:33.985Z,11.50
2019-04-23T13:21:14.064Z,11.50
2019-04-23T13:23:47.606Z,11.50
2019-04-23T13:26:08.947Z,11.40
2019-04-23T13:28:52.882Z,11.40
2019-04-23T13:31:20.449Z,12.00
2019-04-23T13:33:57.668Z,11.60
2019-04-23T13:36:39.513Z,11.50
2019-04-23T13:39:16.112Z,11.10
2019-04-23T13:41:54.112Z,11.30
2019-04-23T13:44:13.372Z,11.70
2019-04-23T13:46:46.739Z,11.00
2019-04-23T13:49:18.482Z,10.90
2019-04-23T13:51:50.638Z,11.10
2019-04-23T13:54:52.689Z,11.40
2019-04-23T13:59:41.083Z,11.40
2019-04-23T14:02:03.560Z,11.30
2019-04-23T14:04:58.467Z,11.60
2019-04-23T14:07:23.324Z,11.40
2019-04-23T14:12:30.258Z,11.50
2019-04-23T14:18:02.912Z,11.20
2019-04-23T14:20:07.903Z,11.30
2019-04-23T14:27:52.151Z,11.70
2019-04-23T14:30:21.861Z,11.50
2019-04-23T14:32:54.463Z,11.10
2019-04-23T14:35:25.763Z,10.70
2019-04-23T14:38:09.847Z,10.80
2019-04-23T14:40:36.705Z,10.90
2019-04-23T14:43:10.878Z,11.50
2019-04-23T14:46:33.520Z,11.40
2019-04-23T14:48:20.661Z,11.30
2019-04-23T14:51:02.521Z,11.10
2019-04-23T14:58:42.489Z,11.70
2019-04-23T15:08:57.380Z,11.70
2019-04-23T15:13:55.325Z,11.70
2019-04-23T15:16:33.406Z,11.90
2019-04-23T15:19:28.524Z,11.60
2019-04-23T15:22:04.938Z,12.30
2019-04-23T15:29:20.022Z,13.80
2019-04-23T15:32:13.833Z,13.80
2019-04-23T15:35:03.118Z,13.10
2019-04-23T15:39:55.127Z,13.20
2019-04-23T15:44:55.830Z,13.00
2019-04-23T15:47:28.409Z,13.20
2019-04-23T15:52:39.657Z,13.40
2019-04-23T16:00:17.905Z,14.20
2019-04-23T16:02:16.822Z,14.60
2019-04-23T16:04:49.043Z,15.10
2019-04-23T16:07:41.454Z,15.20
2019-04-23T16:13:02.509Z,14.60
2019-04-23T16:15:27.054Z,14.90
2019-04-23T16:18:20.548Z,14.90
2019-04-23T16:23:21.447Z,14.90
2019-04-23T16:25:54.814Z,15.10
2019-04-23T16:28:28.974Z,15.20
2019-04-23T16:31:04.311Z,15.10
2019-04-23T16:33:38.646Z,15.10
2019-04-23T16:43:57.707Z,16.00
2019-04-23T16:46:28.488Z,16.00
2019-04-23T16:49:09.028Z,16.10
2019-04-23T16:54:09.992Z,16.50
2019-04-23T16:56:55.911Z,16.70
2019-04-23T16:59:24.496Z,16.90
2019-04-23T17:04:26.856Z,17.20
2019-04-23T17:06:52.349Z,17.10
2019-04-23T17:09:33.643Z,17.30
2019-04-23T17:12:06.015Z,17.80
2019-04-23T17:14:23.513Z,18.00
2019-04-23T17:16:53.506Z,18.60
2019-04-23T17:22:09.574Z,19.00
2019-04-23T17:24:57.428Z,19.10
2019-04-23T17:29:56.242Z,19.70
2019-04-23T17:32:55.651Z,19.80
2019-04-23T17:35:40.292Z,19.90
2019-04-23T17:38:07.461Z,20.10
2019-04-23T17:40:35.586Z,20.40
2019-04-23T17:43:08.882Z,20.40
2019-04-23T17:45:56.691Z,20.40
2019-04-23T17:48:24.075Z,20.80
2019-04-23T17:53:29.720Z,20.90
2019-04-23T18:09:00.824Z,21.40
2019-04-23T18:11:42.515Z,21.70
2019-04-23T18:14:02.342Z,21.60
2019-04-23T18:16:40.901Z,22.00
2019-04-23T18:19:11.578Z,22.00
2019-04-23T18:27:35.940Z,22.30
2019-04-23T18:33:40.697Z,22.50
2019-04-23T18:40:58.877Z,22.80
2019-04-23T18:43:26.937Z,22.80
2019-04-23T18:45:54.091Z,22.90
2019-04-23T18:53:43.436Z,23.10
2019-04-23T19:01:23.157Z,23.10
2019-04-23T19:04:17.479Z,23.30
2019-04-23T19:06:46.599Z,23.10
2019-04-23T19:13:02.060Z,23.20
2019-04-23T19:15:37.112Z,23.20
2019-04-23T19:17:58.152Z,23.10
2019-04-23T19:23:21.073Z,23.10
2019-04-23T19:25:42.124Z,23.10
2019-04-23T19:28:34.614Z,23.10
2019-04-23T19:30:57.277Z,23.20
2019-04-23T19:41:03.819Z,23.40
2019-04-23T19:43:41.829Z,23.50
2019-04-23T19:49:07.304Z,23.60
2019-04-23T19:51:16.935Z,24.20
2019-04-23T19:54:01.736Z,23.80
2019-04-23T19:56:34.007Z,23.90
2019-04-23T19:58:56.805Z,24.00
2019-04-23T20:01:35.393Z,24.20
2019-04-23T20:03:57.933Z,24.40
2019-04-23T20:06:58.539Z,24.50
2019-04-23T20:09:30.783Z,24.50
2019-04-23T20:11:50.239Z,24.50
2019-04-23T20:14:11.779Z,24.50
2019-04-23T20:17:06.083Z,24.30
2019-04-23T20:19:23.921Z,24.40
2019-04-23T20:27:06.281Z,24.10
2019-04-23T20:30:02.456Z,24.10
2019-04-23T20:35:07.017Z,24.10
2019-04-23T20:38:08.921Z,24.20
2019-04-23T20:40:15.747Z,24.20
2019-04-23T20:42:46.907Z,24.30
2019-04-23T20:45:14.609Z,24.20
2019-04-23T20:47:51.471Z,24.20
2019-04-23T20:50:18.174Z,24.20
2019-04-23T20:52:53.201Z,24.20
2019-04-23T20:55:41.135Z,24.10
2019-04-23T20:58:13.933Z,24.20
2019-04-23T21:03:47.209Z,24.40
2019-04-23T21:06:19.022Z,24.40
2019-04-23T21:09:13.228Z,24.30
2019-04-23T21:11:38.452Z,24.30
2019-04-23T21:14:09.418Z,24.40
2019-04-23T21:16:32.674Z,24.50
2019-04-23T21:19:05.649Z,24.70
2019-04-23T21:21:37.584Z,24.80
2019-04-23T21:24:14.594Z,24.90
2019-04-23T21:26:42.313Z,25.00
2019-04-23T21:29:09.082Z,25.00
2019-04-23T21:31:47.800Z,25.00
2019-04-23T21:34:17.798Z,25.10
2019-04-23T21:36:51.002Z,25.60
2019-04-23T21:42:40.766Z,25.20
2019-04-23T21:44:59.022Z,25.10
2019-04-23T21:50:19.215Z,24.90
2019-04-23T21:52:41.096Z,25.40
2019-04-23T21:55:15.629Z,25.00
2019-04-23T21:57:53.406Z,25.00
2019-04-23T22:00:14.271Z,24.90
2019-04-23T22:02:59.527Z,25.00
2019-04-23T22:05:25.205Z,25.00
2019-04-23T22:10:26.427Z,25.20
2019-04-23T22:13:15.990Z,25.20
2019-04-23T22:15:47.658Z,25.30
2019-04-23T22:18:06.988Z,25.30
2019-04-23T22:20:52.666Z,25.50
2019-04-23T22:26:08.876Z,25.70
2019-04-23T22:28:16.152Z,25.60
2019-04-23T22:31:03.720Z,25.90
2019-04-23T22:33:25.007Z,25.90
2019-04-23T22:36:04.526Z,26.40
2019-04-23T22:41:02.012Z,26.10
2019-04-23T22:43:49.835Z,26.20
2019-04-23T22:46:18.248Z,26.10
2019-04-23T22:49:14.227Z,26.20
2019-04-23T22:51:52.375Z,26.30
2019-04-23T22:54:11.413Z,26.30
2019-04-23T22:56:50.427Z,26.30
2019-04-23T22:59:37.755Z,26.50
2019-04-23T23:01:54.829Z,26.50
2019-04-23T23:07:07.661Z,26.60
2019-04-23T23:09:33.553Z,26.60
2019-04-23T23:12:07.818Z,26.70
2019-04-23T23:14:35.917Z,26.70
2019-04-23T23:17:02.281Z,27.00
2019-04-23T23:19:56.235Z,26.80
2019-04-23T23:22:13.535Z,26.80
2019-04-23T23:24:56.200Z,26.80
2019-04-23T23:27:16.736Z,26.80
2019-04-23T23:30:00.432Z,26.80
2019-04-23T23:32:31.186Z,26.90
2019-04-23T23:37:28.096Z,26.80
2019-04-23T23:40:15.106Z,26.70
2019-04-23T23:42:36.792Z,26.70
2019-04-23T23:47:52.178Z,26.70
2019-04-23T23:50:19.548Z,27.30
2019-04-23T23:52:56.622Z,26.90
2019-04-23T23:57:56.806Z,26.80
